Time;durP1;ratioP1;P1;durP2;ratioP2;P2;SDS_P1;SDS_P2;PMS_P1;PMS_P2;Temp;Humidity;BMP_temperature;BMP_pressure;BME280_temperature;BME280_humidity;BME280_pressure;Samples;Min_cycle;Max_cycle;Signal;HPM_P1;HPM_P2
2022/09/17 00:01:19;;;;;;;24.80;6.72;;;;;;;10.30;94.58;95733.53;5069703;28;20135;-76
2022/09/17 00:03:49;;;;;;;22.48;7.32;;;;;;;10.19;94.46;95739.34;5069769;28;20052;-76
2022/09/17 00:06:15;;;;;;;25.88;7.50;;;;;;;10.24;94.30;95740.31;5069529;28;20048;-74
2022/09/17 00:08:42;;;;;;;16.60;5.88;;;;;;;10.30;94.67;95744.44;5069897;28;20052;-74
2022/09/17 00:11:10;;;;;;;19.42;6.53;;;;;;;10.31;94.49;95746.03;5069475;28;20048;-76
2022/09/17 00:13:37;;;;;;;29.13;7.22;;;;;;;10.31;93.82;95740.56;5070103;28;20066;-75
2022/09/17 00:16:04;;;;;;;23.75;6.38;;;;;;;10.31;93.89;95735.13;5069413;28;20412;-75
2022/09/17 00:18:35;;;;;;;22.38;6.35;;;;;;;10.33;93.82;95741.03;5069928;28;20392;-75
2022/09/17 00:21:02;;;;;;;19.83;6.20;;;;;;;10.24;93.67;95740.31;5065771;28;20086;-75
2022/09/17 00:23:29;;;;;;;19.50;5.75;;;;;;;10.26;93.48;95727.16;5069511;28;20056;-75
2022/09/17 00:25:56;;;;;;;24.77;6.30;;;;;;;10.27;93.49;95734.19;5069716;28;20064;-74
2022/09/17 00:28:22;;;;;;;20.63;5.70;;;;;;;10.28;92.96;95742.03;5069451;28;20044;-75
2022/09/17 00:30:49;;;;;;;18.83;5.47;;;;;;;10.25;93.17;95739.19;5073347;28;20045;-75
2022/09/17 00:33:18;;;;;;;16.63;5.53;;;;;;;10.27;93.07;95739.63;5072903;28;20543;-75
2022/09/17 00:35:57;;;;;;;19.60;5.82;;;;;;;10.23;93.62;95749.56;5073199;28;20145;-74
2022/09/17 00:38:24;;;;;;;16.50;4.95;;;;;;;10.23;92.58;95747.63;5073184;28;20040;-76
2022/09/17 00:40:50;;;;;;;24.92;6.03;;;;;;;10.20;92.09;95743.66;5073433;28;20044;-75
2022/09/17 00:43:36;;;;;;;14.95;4.95;;;;;;;10.12;92.67;95738.25;5072802;28;20045;-75
2022/09/17 00:46:04;;;;;;;22.13;5.57;;;;;;;10.13;93.35;95745.31;5072689;28;20058;-74
2022/09/17 00:48:31;;;;;;;21.42;4.80;;;;;;;10.15;91.95;95745.78;5073265;28;20056;-76
2022/09/17 00:51:01;;;;;;;13.57;4.22;;;;;;;10.16;92.40;95745.44;5072698;28;20044;-76
2022/09/17 00:53:29;;;;;;;17.27;4.63;;;;;;;10.01;92.57;95748.72;5072828;28;20098;-75
2022/09/17 00:56:01;;;;;;;21.08;3.88;;;;;;;9.68;92.38;95746.66;5072846;28;20052;-76
2022/09/17 00:58:29;;;;;;;15.27;3.80;;;;;;;9.63;93.79;95746.03;5072513;28;20052;-74
2022/09/17 01:00:56;;;;;;;21.42;4.90;;;;;;;9.46;94.56;95746.13;5072800;28;20048;-75
2022/09/17 01:03:22;;;;;;;15.77;3.88;;;;;;;9.44;95.44;95746.41;5072350;28;20044;-76
2022/09/17 01:05:59;;;;;;;19.00;4.13;;;;;;;9.40;94.77;95750.94;5073016;28;20045;-75
2022/09/17 01:08:34;;;;;;;13.10;3.17;;;;;;;9.30;94.74;95743.13;5072393;28;20040;-76
2022/09/17 01:11:26;;;;;;;15.25;3.10;;;;;;;9.19;93.41;95750.84;5072519;28;20044;-74
2022/09/17 01:14:09;;;;;;;17.55;3.30;;;;;;;9.08;92.93;95744.13;5072570;28;20049;-75
2022/09/17 01:16:44;;;;;;;14.70;3.00;;;;;;;9.09;93.60;95757.41;5072973;28;20048;-75
2022/09/17 01:19:48;;;;;;;23.98;3.80;;;;;;;9.10;93.73;95763.63;5073937;28;20238;-75
2022/09/17 01:22:23;;;;;;;17.52;2.90;;;;;;;9.17;93.52;95757.69;5053895;28;20072;-74
2022/09/17 01:25:07;;;;;;;14.43;2.55;;;;;;;9.01;93.36;95766.34;5054593;28;20064;-75
2022/09/17 01:28:04;;;;;;;16.08;3.30;;;;;;;9.01;94.72;95765.56;5073869;28;20064;-75
2022/09/17 01:31:06;;;;;;;11.10;2.47;;;;;;;8.94;94.50;95770.69;5074967;28;20043;-74
2022/09/17 01:33:40;;;;;;;18.60;3.03;;;;;;;9.13;93.50;95768.41;5073406;28;20041;-75
2022/09/17 01:36:20;;;;;;;17.17;2.63;;;;;;;9.10;93.08;95764.44;5072242;28;20045;-74
2022/09/17 01:38:54;;;;;;;12.25;2.40;;;;;;;9.15;93.67;95766.19;5072730;28;20045;-74
2022/09/17 01:41:31;;;;;;;15.93;2.80;;;;;;;9.12;92.85;95762.16;5071783;28;20051;-74
2022/09/17 01:44:02;;;;;;;15.35;2.60;;;;;;;9.28;92.65;95761.66;5072298;28;20580;-75
2022/09/17 01:46:35;;;;;;;8.32;1.88;;;;;;;9.20;91.86;95767.94;5072049;28;20046;-76
2022/09/17 01:49:02;;;;;;;;;;;;;;;9.21;92.13;95764.09;5072156;28;20044;-75
2022/09/17 01:51:35;;;;;;;8.93;1.98;;;;;;;9.37;91.43;95757.00;5072099;28;19927;-74
2022/09/17 01:54:07;;;;;;;10.07;2.10;;;;;;;9.29;91.27;95753.22;5071830;28;20536;-75
2022/09/17 01:56:38;;;;;;;10.48;1.95;;;;;;;9.42;90.65;95756.84;5071995;28;20049;-75
2022/09/17 01:59:11;;;;;;;13.10;2.30;;;;;;;9.53;90.59;95747.19;5071427;28;20591;-74
2022/09/17 02:01:43;;;;;;;16.10;2.47;;;;;;;9.58;89.56;95747.03;5071739;28;20059;-75
2022/09/17 02:04:15;;;;;;;15.85;2.45;;;;;;;9.63;89.51;95744.13;5071317;28;20499;-74
2022/09/17 02:06:47;;;;;;;16.35;2.75;;;;;;;9.67;89.55;95750.50;5071623;28;20040;-76
2022/09/17 02:09:17;;;;;;;19.55;2.88;;;;;;;9.63;89.33;95749.56;5071359;28;20044;-75
2022/09/17 02:11:55;;;;;;;19.05;2.88;;;;;;;9.71;88.83;95755.28;5071852;28;20055;-75
2022/09/17 02:14:26;;;;;;;15.27;2.58;;;;;;;9.76;88.96;95755.09;5070952;28;20078;-75
2022/09/17 02:17:00;;;;;;;19.15;2.75;;;;;;;9.80;88.50;95765.00;5071680;28;20499;-74
2022/09/17 02:19:36;;;;;;;14.63;2.38;;;;;;;9.81;88.38;95754.91;5071075;28;20438;-75
2022/09/17 02:22:12;;;;;;;14.80;2.60;;;;;;;9.82;87.50;95751.09;5071090;28;20045;-75
2022/09/17 02:24:46;;;;;;;19.27;2.97;;;;;;;9.75;87.77;95750.78;5071260;28;20041;-77
2022/09/17 02:27:22;;;;;;;17.02;2.53;;;;;;;9.74;88.03;95743.75;5070947;28;20048;-74
2022/09/17 02:29:49;;;;;;;12.00;2.22;;;;;;;9.78;88.52;95737.34;5071586;28;20045;-76
2022/09/17 02:32:17;;;;;;;12.00;2.55;;;;;;;9.65;88.75;95736.41;5070846;28;20053;-75
2022/09/17 02:34:43;;;;;;;18.65;2.97;;;;;;;9.65;88.11;95735.63;5071080;28;20040;-75
2022/09/17 02:37:11;;;;;;;20.63;3.35;;;;;;;9.65;88.60;95722.03;5070690;28;20040;-76
2022/09/17 02:39:37;;;;;;;21.10;3.67;;;;;;;9.63;88.29;95722.38;5071044;28;20060;-75
2022/09/17 02:42:16;;;;;;;16.75;3.45;;;;;;;9.38;90.25;95726.00;5070451;28;20399;-74
2022/09/17 02:44:54;;;;;;;20.25;4.07;;;;;;;9.46;90.55;95727.88;5071041;28;20561;-75
2022/09/17 02:47:37;;;;;;;15.10;3.65;;;;;;;9.41;90.79;95714.47;5070549;28;20048;-75
2022/09/17 02:50:18;;;;;;;18.23;4.10;;;;;;;9.52;90.13;95721.16;5069998;28;20442;-74
2022/09/17 02:52:57;;;;;;;19.75;4.07;;;;;;;9.36;90.56;95711.94;5070278;28;20045;-75
2022/09/17 02:55:32;;;;;;;16.77;4.35;;;;;;;9.04;91.79;95714.13;5070357;28;20041;-74
2022/09/17 02:58:11;;;;;;;21.10;4.80;;;;;;;8.96;92.32;95717.63;5070869;28;20045;-76
2022/09/17 03:00:38;;;;;;;21.80;4.40;;;;;;;9.11;91.80;95710.91;5070830;28;20067;-74
2022/09/17 03:03:10;;;;;;;16.35;4.40;;;;;;;8.91;91.68;95706.94;5070300;28;20526;-74
2022/09/17 03:05:40;;;;;;;17.88;4.20;;;;;;;8.67;92.33;95706.69;5070752;28;20049;-75
2022/09/17 03:08:09;;;;;;;21.52;4.93;;;;;;;8.72;93.49;95698.34;5070192;28;20435;-75
2022/09/17 03:10:36;;;;;;;15.80;4.40;;;;;;;8.67;93.07;95691.19;5070664;28;20044;-75
2022/09/17 03:13:02;;;;;;;24.15;4.72;;;;;;;8.65;91.50;95692.63;5070069;28;20072;-75
2022/09/17 03:15:29;;;;;;;18.30;4.22;;;;;;;8.56;92.08;95696.16;5070831;28;20051;-75
2022/09/17 03:17:56;;;;;;;10.80;3.60;;;;;;;8.56;92.65;95693.44;5070573;28;20132;-75
2022/09/17 03:20:23;;;;;;;23.00;5.15;;;;;;;8.68;91.62;95706.34;5069952;28;20044;-75
2022/09/17 03:22:51;;;;;;;16.27;4.10;;;;;;;8.50;91.78;95708.28;5070491;28;20048;-75
2022/09/17 03:25:18;;;;;;;23.35;5.03;;;;;;;8.53;91.91;95713.06;5069572;28;20411;-75
2022/09/17 03:27:44;;;;;;;18.55;4.53;;;;;;;8.52;91.46;95708.78;5070372;28;20040;-75
2022/09/17 03:30:11;;;;;;;15.95;3.90;;;;;;;8.38;91.49;95713.56;5069987;28;20048;-75
2022/09/17 03:32:37;;;;;;;18.10;4.60;;;;;;;8.36;92.49;95715.81;5070361;28;20380;-75
2022/09/17 03:35:04;;;;;;;21.70;4.68;;;;;;;8.26;93.08;95713.38;5069751;28;20045;-75
2022/09/17 03:37:32;;;;;;;20.23;4.85;;;;;;;8.18;93.58;95719.56;5070125;28;20679;-75
2022/09/17 03:39:59;;;;;;;25.45;5.80;;;;;;;8.20;93.48;95720.06;5070397;28;20503;-75
2022/09/17 03:42:25;;;;;;;20.35;4.90;;;;;;;8.28;93.36;95724.69;5069931;28;20048;-75
2022/09/17 03:44:52;;;;;;;17.85;4.50;;;;;;;8.29;93.21;95718.13;5070386;28;20048;-75
2022/09/17 03:47:18;;;;;;;19.45;4.88;;;;;;;8.32;92.56;95717.50;5069753;28;20044;-75
2022/09/17 03:49:45;;;;;;;17.42;4.38;;;;;;;8.17;92.75;95715.28;5069895;28;20049;-75
2022/09/17 03:52:11;;;;;;;26.15;5.43;;;;;;;8.10;92.83;95711.13;5069756;28;20048;-75
2022/09/17 03:54:39;;;;;;;19.67;4.55;;;;;;;8.17;92.99;95715.28;5070201;28;20032;-75
2022/09/17 03:57:05;;;;;;;24.30;4.93;;;;;;;8.06;93.34;95710.16;5069240;28;20048;-74
2022/09/17 03:59:32;;;;;;;13.60;3.63;;;;;;;8.16;92.76;95702.84;5070177;28;20041;-75
2022/09/17 04:01:58;;;;;;;15.73;3.90;;;;;;;8.35;91.79;95706.84;5069837;28;20411;-74
2022/09/17 04:04:25;;;;;;;20.15;4.40;;;;;;;8.34;90.94;95709.84;5072459;28;20036;-74
2022/09/17 04:06:51;;;;;;;22.42;4.57;;;;;;;8.41;90.87;95704.00;5074050;28;20040;-74
2022/09/17 04:09:18;;;;;;;24.08;5.90;;;;;;;8.37;91.33;95706.53;5073462;28;20055;-74
2022/09/17 04:11:45;;;;;;;24.92;4.63;;;;;;;8.23;90.73;95697.72;5074210;28;20101;-76
2022/09/17 04:14:12;;;;;;;23.88;4.68;;;;;;;8.32;90.80;95709.38;5073433;28;20048;-77
2022/09/17 04:16:38;;;;;;;15.30;3.75;;;;;;;8.31;91.53;95702.38;5073699;28;20048;-75
2022/09/17 04:19:05;;;;;;;21.63;4.32;;;;;;;8.20;91.83;95692.94;5073200;28;20055;-74
2022/09/17 04:21:31;;;;;;;13.10;3.90;;;;;;;8.27;91.81;95698.69;5073486;28;20041;-75
2022/09/17 04:23:58;;;;;;;19.08;4.05;;;;;;;8.28;91.64;95695.66;5073774;28;20048;-74
2022/09/17 04:26:25;;;;;;;12.10;3.33;;;;;;;8.09;91.36;95695.97;5073226;28;20184;-74
2022/09/17 04:28:53;;;;;;;21.80;4.35;;;;;;;7.97;92.64;95682.22;5073569;28;20047;-75
2022/09/17 04:31:21;;;;;;;20.70;4.50;;;;;;;8.13;92.49;95682.56;5072970;28;20076;-76
2022/09/17 04:33:47;;;;;;;14.57;3.83;;;;;;;8.05;92.61;95694.22;5073360;28;20376;-74
2022/09/17 04:36:14;;;;;;;20.70;4.20;;;;;;;8.13;92.85;95704.25;5073075;28;20055;-74
2022/09/17 04:38:40;;;;;;;19.13;3.67;;;;;;;8.30;92.03;95719.72;5073601;28;20045;-75
2022/09/17 04:41:07;;;;;;;19.58;3.80;;;;;;;8.40;91.33;95734.94;5073013;28;20422;-75
2022/09/17 04:43:34;;;;;;;17.60;3.65;;;;;;;8.51;90.60;95744.34;5073331;28;20044;-75
2022/09/17 04:46:02;;;;;;;22.08;4.57;;;;;;;8.41;89.85;95766.41;5073427;28;20055;-76
2022/09/17 04:48:28;;;;;;;16.05;3.30;;;;;;;8.58;90.09;95775.31;5073182;28;20040;-75
2022/09/17 04:50:54;;;;;;;16.30;3.50;;;;;;;8.65;88.99;95777.56;5072849;28;20049;-75
2022/09/17 04:53:21;;;;;;;17.83;3.47;;;;;;;8.74;89.12;95785.72;5072876;28;21506;-75
2022/09/17 04:55:47;;;;;;;14.23;3.60;;;;;;;8.86;89.63;95785.84;5073174;28;20376;-75
2022/09/17 04:58:14;;;;;;;17.85;3.47;;;;;;;8.91;89.11;95793.84;5072559;28;20131;-75
2022/09/17 05:00:41;;;;;;;17.55;3.55;;;;;;;8.92;87.78;95803.56;5072920;28;20407;-75
2022/09/17 05:03:09;;;;;;;19.60;4.15;;;;;;;8.91;88.54;95821.00;5072640;28;20076;-75
2022/09/17 05:05:36;;;;;;;13.00;3.40;;;;;;;8.93;88.54;95818.78;5072920;28;20102;-75
2022/09/17 05:08:03;;;;;;;21.02;4.57;;;;;;;8.96;87.66;95820.03;5072473;28;20509;-74
2022/09/17 05:10:29;;;;;;;13.93;3.15;;;;;;;9.00;87.53;95829.94;5072856;28;20074;-75
2022/09/17 05:12:57;;;;;;;22.42;3.83;;;;;;;9.06;87.78;95822.41;5072496;28;20048;-75
2022/09/17 05:15:25;;;;;;;17.95;3.78;;;;;;;8.97;86.92;95817.00;5071604;28;20040;-75
2022/09/17 05:17:51;;;;;;;16.52;3.70;;;;;;;9.02;87.50;95808.69;5072961;28;20040;-76
2022/09/17 05:20:19;;;;;;;21.33;3.85;;;;;;;9.03;87.52;95815.72;5071969;28;20491;-75
2022/09/17 05:22:48;;;;;;;20.63;3.40;;;;;;;8.98;87.36;95832.19;5072791;28;20414;-76
2022/09/17 05:25:16;;;;;;;16.83;3.78;;;;;;;8.97;87.81;95827.84;5072359;28;20068;-76
2022/09/17 05:27:43;;;;;;;15.35;3.30;;;;;;;8.98;88.52;95832.19;5072518;28;20041;-75
2022/09/17 05:30:10;;;;;;;26.80;3.78;;;;;;;8.84;87.52;95820.69;5072091;28;20048;-75
2022/09/17 05:32:37;;;;;;;15.55;3.30;;;;;;;8.80;87.73;95836.81;5072542;28;20522;-75
2022/09/17 05:35:05;;;;;;;21.55;3.88;;;;;;;8.84;88.34;95831.53;5071891;28;20094;-75
2022/09/17 05:37:33;;;;;;;16.58;3.10;;;;;;;8.90;87.77;95830.25;5072606;28;20098;-75
2022/09/17 05:39:59;;;;;;;20.17;3.83;;;;;;;8.83;88.50;95843.53;5072424;28;20521;-76
2022/09/17 05:42:26;;;;;;;13.95;2.80;;;;;;;8.89;89.00;95834.09;5071699;28;20643;-75
2022/09/17 05:44:52;;;;;;;17.85;3.30;;;;;;;8.88;88.79;95837.94;5072100;28;20047;-75
2022/09/17 05:47:19;;;;;;;17.65;3.17;;;;;;;8.92;88.69;95859.81;5071631;28;20045;-75
2022/09/17 05:49:45;;;;;;;19.30;3.65;;;;;;;8.70;88.32;95868.88;5071799;28;20044;-76
2022/09/17 05:52:11;;;;;;;16.95;3.25;;;;;;;8.79;88.78;95875.94;5071889;28;20518;-74
2022/09/17 05:54:39;;;;;;;16.63;3.50;;;;;;;8.65;89.75;95861.69;5072066;28;20036;-74
2022/09/17 05:57:06;;;;;;;17.63;3.40;;;;;;;8.70;89.50;95868.88;5071266;28;20044;-75
2022/09/17 05:59:34;;;;;;;16.67;2.95;;;;;;;8.68;88.92;95865.72;5071932;28;20052;-76
2022/09/17 06:02:00;;;;;;;19.48;3.42;;;;;;;8.67;89.71;95866.81;5071772;28;20106;-79
2022/09/17 06:04:26;;;;;;;21.95;3.97;;;;;;;8.72;89.90;95862.03;5071139;28;20049;-75
2022/09/17 06:06:53;;;;;;;20.73;3.72;;;;;;;8.77;89.56;95870.03;5071894;28;20048;-76
2022/09/17 06:09:19;;;;;;;17.40;3.03;;;;;;;8.52;89.18;95862.66;5071192;28;20052;-76
2022/09/17 06:11:47;;;;;;;22.13;3.50;;;;;;;8.59;90.25;95858.34;5071406;28;20048;-75
2022/09/17 06:14:14;;;;;;;20.55;3.63;;;;;;;8.52;89.38;95859.94;5071125;28;20059;-75
2022/09/17 06:16:40;;;;;;;13.00;2.83;;;;;;;8.61;89.50;95860.72;5071599;28;20049;-75
2022/09/17 06:19:07;;;;;;;21.88;3.88;;;;;;;8.67;90.11;95848.63;5070727;28;20053;-76
2022/09/17 06:21:33;;;;;;;18.23;2.97;;;;;;;8.67;89.71;95864.13;5071238;28;20132;-75
2022/09/17 06:24:00;;;;;;;18.52;3.10;;;;;;;8.69;89.70;95861.88;5071451;28;20040;-76
2022/09/17 06:26:27;;;;;;;11.23;2.28;;;;;;;8.78;89.82;95866.19;5070008;28;20047;-76
2022/09/17 06:28:55;;;;;;;19.58;3.05;;;;;;;8.79;89.52;95862.34;5071328;28;20526;-76
2022/09/17 06:31:21;;;;;;;19.80;3.42;;;;;;;8.81;90.18;95870.97;5070586;28;20063;-76
2022/09/17 06:33:48;;;;;;;22.88;3.70;;;;;;;8.82;89.43;95872.59;5071216;28;20051;-75
2022/09/17 06:36:14;;;;;;;17.25;3.22;;;;;;;8.80;89.40;95876.72;5070626;28;20052;-75
2022/09/17 06:38:41;;;;;;;23.63;3.83;;;;;;;8.65;90.22;95883.41;5071176;28;20043;-76
2022/09/17 06:41:08;;;;;;;20.65;3.65;;;;;;;8.72;89.98;95877.50;5070138;28;20047;-76
2022/09/17 06:43:34;;;;;;;16.80;3.20;;;;;;;8.71;89.54;95863.13;5071121;28;20044;-76
2022/09/17 06:46:06;;;;;;;18.80;3.50;;;;;;;8.93;89.20;95867.66;5070894;28;20060;-76
2022/09/17 06:48:35;;;;;;;20.92;3.40;;;;;;;8.87;89.30;95868.91;5070730;28;20121;-75
2022/09/17 06:51:02;;;;;;;19.40;3.47;;;;;;;8.66;89.92;95857.06;5070548;28;20051;-76
2022/09/17 06:53:29;;;;;;;13.38;2.92;;;;;;;8.91;88.79;95863.63;5070744;28;20592;-76
2022/09/17 06:55:57;;;;;;;20.92;3.38;;;;;;;8.97;88.25;95865.06;5070788;28;20037;-76
2022/09/17 06:58:24;;;;;;;25.65;3.78;;;;;;;9.00;87.62;95856.31;5070095;28;20098;-76
2022/09/17 07:00:50;;;;;;;30.83;4.28;;;;;;;8.81;89.03;95859.31;5070498;28;20124;-76
2022/09/17 07:03:18;;;;;;;24.02;3.95;;;;;;;8.86;89.86;95856.44;5070043;28;20051;-75
2022/09/17 07:05:45;;;;;;;22.90;3.50;;;;;;;8.76;87.82;95862.97;5070431;28;20040;-76
2022/09/17 07:08:11;;;;;;;18.88;3.20;;;;;;;8.88;88.03;95865.88;5070198;28;20048;-75
2022/09/17 07:10:38;;;;;;;21.60;3.55;;;;;;;8.91;86.96;95871.78;5070319;28;20052;-75
2022/09/17 07:13:04;;;;;;;28.98;3.72;;;;;;;8.81;87.12;95872.88;5070014;28;20049;-75
2022/09/17 07:15:31;;;;;;;14.82;2.60;;;;;;;8.81;88.53;95864.75;5070376;28;20510;-76
2022/09/17 07:17:57;;;;;;;18.25;2.97;;;;;;;8.85;87.74;95854.84;5070332;28;20063;-76
2022/09/17 07:20:25;;;;;;;22.98;3.53;;;;;;;9.11;86.72;95850.22;5069599;28;20546;-76
2022/09/17 07:22:56;;;;;;;21.02;2.88;;;;;;;9.38;86.61;95845.56;5070450;28;20044;-77
2022/09/17 07:25:23;;;;;;;20.80;2.85;;;;;;;9.21;83.11;95842.88;5069752;28;20109;-76
2022/09/17 07:27:49;;;;;;;14.50;2.00;;;;;;;8.88;81.89;95855.03;5070331;28;20117;-75
2022/09/17 07:30:16;;;;;;;20.13;2.63;;;;;;;8.70;83.21;95852.59;5069837;28;20422;-76
2022/09/17 07:32:42;;;;;;;28.15;3.50;;;;;;;8.69;84.34;95856.44;5070162;28;20043;-75
2022/09/17 07:35:09;;;;;;;13.02;2.08;;;;;;;8.78;84.66;95857.25;5069645;28;20048;-75
2022/09/17 07:37:37;;;;;;;26.42;3.28;;;;;;;8.85;84.09;95860.28;5070016;28;20499;-76
2022/09/17 07:40:05;;;;;;;25.33;3.10;;;;;;;9.39;81.63;95863.44;5069827;28;20507;-75
2022/09/17 07:42:32;;;;;;;21.90;2.78;;;;;;;10.12;79.92;95860.69;5070104;28;20094;-76
2022/09/17 07:44:59;;;;;;;10.82;1.67;;;;;;;10.88;77.31;95851.63;5070002;28;20055;-75
2022/09/17 07:47:26;;;;;;;22.20;2.83;;;;;;;11.07;76.17;95843.81;5069751;28;20047;-75
2022/09/17 07:49:52;;;;;;;24.98;3.50;;;;;;;11.36;76.75;95850.28;5069864;28;20458;-76
2022/09/17 07:52:19;;;;;;;19.83;2.90;;;;;;;11.53;73.87;95846.56;5069743;28;20403;-77
2022/09/17 07:54:47;;;;;;;27.48;3.33;;;;;;;11.74;72.28;95839.94;5070187;28;20040;-75
2022/09/17 07:57:13;;;;;;;17.42;3.13;;;;;;;11.83;73.84;95841.81;5069759;28;20098;-76
2022/09/17 07:59:40;;;;;;;15.07;2.55;;;;;;;11.58;72.83;95836.25;5069908;28;20081;-75
2022/09/17 08:02:11;;;;;;;26.10;4.20;;;;;;;11.57;75.12;95840.13;5069396;28;20045;-75
2022/09/17 08:04:38;;;;;;;24.73;3.55;;;;;;;11.43;74.26;95828.69;5070083;28;20049;-75
2022/09/17 08:07:04;;;;;;;20.05;2.78;;;;;;;11.48;71.72;95842.94;5069638;28;20106;-75
2022/09/17 08:09:31;;;;;;;20.00;2.72;;;;;;;11.42;70.98;95832.56;5070242;28;20041;-75
2022/09/17 08:11:59;;;;;;;19.55;2.88;;;;;;;11.05;72.13;95846.03;5069920;28;20045;-75
2022/09/17 08:14:25;;;;;;;16.40;2.40;;;;;;;10.76;73.86;95843.41;5069456;28;20051;-75
2022/09/17 08:16:52;;;;;;;19.60;2.97;;;;;;;10.87;74.76;95850.03;5069734;28;20040;-76
2022/09/17 08:19:19;;;;;;;23.15;2.63;;;;;;;10.76;73.64;95854.28;5069242;28;20071;-75
2022/09/17 08:21:45;;;;;;;22.00;2.67;;;;;;;10.83;74.39;95860.00;5069705;28;20051;-75
2022/09/17 08:24:12;;;;;;;23.00;2.72;;;;;;;10.71;72.43;95850.63;5069334;28;20045;-75
2022/09/17 08:26:38;;;;;;;21.73;2.78;;;;;;;10.13;74.19;95856.84;5069591;28;20051;-76
2022/09/17 08:29:06;;;;;;;19.67;2.97;;;;;;;9.99;77.67;95864.44;5069436;28;20114;-74
2022/09/17 08:31:33;;;;;;;18.83;2.55;;;;;;;10.15;75.70;95865.47;5069739;28;20045;-75
2022/09/17 08:34:00;;;;;;;20.42;2.92;;;;;;;10.11;76.45;95868.03;5069542;28;20056;-75
2022/09/17 08:36:26;;;;;;;17.02;2.35;;;;;;;10.06;76.88;95868.22;5069421;28;20063;-75
2022/09/17 08:38:54;;;;;;;26.67;3.20;;;;;;;10.22;77.33;95884.00;5069735;28;20053;-75
2022/09/17 08:41:28;;;;;;;14.05;2.50;;;;;;;10.26;77.91;95885.00;5069043;28;20044;-75
2022/09/17 08:44:11;;;;;;;15.57;2.50;;;;;;;10.29;76.75;95878.91;5069723;28;20045;-76
2022/09/17 08:46:44;;;;;;;16.60;2.33;;;;;;;10.12;76.09;95875.06;5069511;28;20047;-75
2022/09/17 08:49:20;;;;;;;19.75;2.97;;;;;;;10.31;73.71;95882.88;5068921;28;20052;-76
2022/09/17 08:52:01;;;;;;;19.95;2.80;;;;;;;10.11;73.96;95876.22;5072533;28;20040;-75
2022/09/17 08:54:36;;;;;;;19.48;3.15;;;;;;;10.36;73.75;95879.19;5072862;28;20067;-75
2022/09/17 08:57:13;;;;;;;10.75;2.05;;;;;;;10.05;74.52;95880.25;5072280;28;20075;-75
2022/09/17 08:59:49;;;;;;;17.70;3.03;;;;;;;10.14;76.36;95878.28;5073016;28;20056;-75
2022/09/17 09:02:27;;;;;;;22.13;2.92;;;;;;;10.30;73.21;95892.19;5072491;28;20057;-76
2022/09/17 09:05:03;;;;;;;25.02;3.15;;;;;;;10.16;76.19;95888.84;5072980;28;20053;-76
2022/09/17 09:07:34;;;;;;;25.48;3.33;;;;;;;9.92;79.77;95892.13;5072535;28;20131;-74
2022/09/17 09:10:12;;;;;;;19.98;2.95;;;;;;;9.55;80.49;95897.19;5072986;28;20391;-76
2022/09/17 09:12:40;;;;;;;18.98;2.45;;;;;;;9.43;80.58;95913.31;5072690;28;20044;-75
2022/09/17 09:15:18;;;;;;;16.42;2.38;;;;;;;9.57;79.39;95908.53;5072174;28;20048;-75
2022/09/17 09:17:49;;;;;;;21.42;2.80;;;;;;;9.39;81.22;95909.63;5072724;28;20055;-75
2022/09/17 09:20:28;;;;;;;25.70;3.08;;;;;;;9.40;81.45;95913.97;5071793;28;20131;-76
2022/09/17 09:22:56;;;;;;;15.07;2.40;;;;;;;9.34;82.84;95917.97;5072628;28;20052;-75
2022/09/17 09:25:25;;;;;;;13.60;2.28;;;;;;;9.25;83.24;95923.41;5071716;28;20094;-75
2022/09/17 09:28:08;;;;;;;20.42;2.67;;;;;;;9.06;84.08;95922.91;5072494;28;20131;-75
2022/09/17 09:30:47;;;;;;;17.45;2.72;;;;;;;9.00;88.30;95925.00;5072225;28;20543;-75
2022/09/17 09:33:18;;;;;;;22.48;3.47;;;;;;;8.82;92.32;95931.50;5071972;28;20048;-76
2022/09/17 09:35:45;;;;;;;18.95;3.17;;;;;;;8.90;94.85;95938.88;5072122;28;20047;-75
2022/09/17 09:38:21;;;;;;;9.35;2.05;;;;;;;8.74;95.11;95935.00;5071786;28;20052;-75
2022/09/17 09:40:54;;;;;;;17.70;2.45;;;;;;;8.55;95.99;95938.78;5072406;28;20045;-75
2022/09/17 09:43:24;;;;;;;20.77;2.72;;;;;;;8.36;96.86;95946.41;5071814;28;20063;-75
2022/09/17 09:46:09;;;;;;;16.75;2.20;;;;;;;8.25;97.38;95945.84;5071970;28;20046;-74
2022/09/17 09:48:47;;;;;;;17.83;2.47;;;;;;;7.95;98.93;95954.78;5071930;28;20033;-75
2022/09/17 09:51:26;;;;;;;16.92;2.35;;;;;;;7.94;99.64;95956.69;5071491;28;20052;-75
2022/09/17 09:54:06;;;;;;;17.10;2.47;;;;;;;7.84;100.00;95957.75;5071860;28;20047;-74
2022/09/17 09:56:45;;;;;;;23.23;3.20;;;;;;;7.82;100.00;95953.72;5071533;28;20051;-74
2022/09/17 09:59:12;;;;;;;18.45;2.67;;;;;;;7.83;100.00;95955.34;5071426;28;20150;-75
2022/09/17 10:01:42;;;;;;;21.63;3.50;;;;;;;7.91;100.00;95961.94;5071674;28;20055;-76
2022/09/17 10:04:17;;;;;;;18.15;3.28;;;;;;;7.90;100.00;95955.72;5071399;28;20053;-76
2022/09/17 10:06:44;;;;;;;22.73;2.83;;;;;;;7.78;100.00;95958.19;5071654;28;20052;-76
2022/09/17 10:09:13;;;;;;;15.15;2.28;;;;;;;7.74;100.00;95963.44;5070903;28;20055;-75
2022/09/17 10:11:41;;;;;;;16.85;2.45;;;;;;;7.70;100.00;95964.34;5071608;28;20044;-75
2022/09/17 10:14:21;;;;;;;12.75;1.98;;;;;;;7.71;100.00;95955.09;5071037;28;20440;-76
2022/09/17 10:16:50;;;;;;;18.17;3.05;;;;;;;7.72;100.00;95959.41;5071498;28;20048;-75
2022/09/17 10:19:24;;;;;;;24.20;3.10;;;;;;;7.71;100.00;95957.81;5070838;28;20139;-74
2022/09/17 10:21:51;;;;;;;8.15;1.90;;;;;;;7.71;100.00;95957.81;5051423;28;20048;-75
2022/09/17 10:24:23;;;;;;;22.23;2.88;;;;;;;7.73;100.00;95952.91;5050912;28;20052;-75
2022/09/17 10:26:51;;;;;;;13.38;2.63;;;;;;;7.81;100.00;95952.13;5064585;28;20052;-75
2022/09/17 10:29:20;;;;;;;21.08;3.08;;;;;;;7.88;100.00;95947.06;5070894;28;20051;-75
2022/09/17 10:31:48;;;;;;;19.27;3.05;;;;;;;7.84;100.00;95948.81;5071113;28;20384;-76
2022/09/17 10:34:22;;;;;;;20.65;3.10;;;;;;;7.97;100.00;95939.00;5070656;28;20408;-75
2022/09/17 10:36:49;;;;;;;15.43;2.67;;;;;;;7.98;100.00;95935.97;5071128;28;20048;-75
2022/09/17 10:39:32;;;;;;;18.00;3.05;;;;;;;8.19;100.00;95935.41;5070328;28;20044;-75
2022/09/17 10:42:01;;;;;;;18.92;3.22;;;;;;;8.26;100.00;95936.59;5071048;28;20044;-77
2022/09/17 10:44:29;;;;;;;11.07;2.08;;;;;;;8.37;100.00;95937.13;5070531;28;20044;-75
2022/09/17 10:47:02;;;;;;;15.90;3.15;;;;;;;8.53;100.00;95941.03;5070953;28;20040;-75
2022/09/17 10:49:37;;;;;;;20.92;3.53;;;;;;;8.58;100.00;95935.44;5070494;28;20043;-75
2022/09/17 10:52:06;;;;;;;12.27;2.35;;;;;;;8.66;100.00;95924.91;5070510;28;20064;-74
2022/09/17 10:54:54;;;;;;;21.27;2.83;;;;;;;8.63;100.00;95932.59;5070776;28;20048;-75
2022/09/17 10:57:35;;;;;;;17.85;3.00;;;;;;;8.43;99.98;95930.44;5070076;28;20044;-74
2022/09/17 11:00:12;;;;;;;16.50;2.65;;;;;;;8.35;99.55;95929.28;5070433;28;20049;-75
2022/09/17 11:03:16;;;;;;;9.23;1.83;;;;;;;8.47;98.36;95928.72;5070554;28;20551;-75
2022/09/17 11:06:06;;;;;;;19.20;2.88;;;;;;;8.43;97.58;95916.88;5070747;28;20044;-75
2022/09/17 11:08:40;;;;;;;14.07;2.63;;;;;;;8.45;98.66;95928.22;5070635;28;20063;-75
2022/09/17 11:11:11;;;;;;;17.05;2.92;;;;;;;8.50;96.81;95933.50;5070128;28;20052;-75
2022/09/17 11:13:45;;;;;;;22.67;3.17;;;;;;;8.46;98.19;95939.91;5069882;28;20048;-75
2022/09/17 11:16:22;;;;;;;25.92;3.83;;;;;;;8.52;98.44;95939.44;5070103;28;20044;-76
2022/09/17 11:18:57;;;;;;;20.27;3.92;;;;;;;8.48;98.47;95935.75;5070448;28;20637;-76
2022/09/17 11:21:40;;;;;;;15.15;3.13;;;;;;;8.35;100.00;95936.59;5067917;28;20044;-76
2022/09/17 11:24:45;;;;;;;17.60;3.72;;;;;;;8.32;100.00;95934.53;5069964;28;20046;-76
2022/09/17 11:27:23;;;;;;;29.40;5.22;;;;;;;8.49;100.00;95928.38;5069589;28;20139;-75
2022/09/17 11:30:03;;;;;;;25.15;5.00;;;;;;;8.65;100.00;95931.47;5070197;28;20048;-75
2022/09/17 11:32:59;;;;;;;24.65;4.22;;;;;;;8.67;100.00;95921.91;5069911;28;20036;-75
2022/09/17 11:35:31;;;;;;;21.70;3.88;;;;;;;8.76;100.00;95921.91;5069927;28;20423;-75
2022/09/17 11:38:03;;;;;;;18.33;3.85;;;;;;;8.78;100.00;95911.56;5070157;28;20105;-75
2022/09/17 11:40:39;;;;;;;20.77;3.97;;;;;;;8.73;96.79;95911.69;5070199;28;20062;-76
2022/09/17 11:43:18;;;;;;;25.30;4.30;;;;;;;8.82;97.12;95915.22;5069707;28;20506;-76
2022/09/17 11:45:55;;;;;;;20.02;4.70;;;;;;;8.92;98.40;95912.19;5070183;28;20044;-75
2022/09/17 11:48:31;;;;;;;22.80;3.75;;;;;;;8.86;96.66;95911.53;5069535;28;20056;-75